KPVD/PVD METAR and TAF weather

Enter ICAO airport designator
Station Type Date Time Source
KPVD METAR 2019/02/16 06:51 UTC NOAA

KPVD 160651Z 34008KT 10SM FEW080 SCT100 06/M02 A2968 RMK AO2 SLP050 T00561022


Station Type Date Time Source
KPVD Decoded METAR 2019/02/16 06:51 UTC NOAA

PROVIDENCE GREEN STATE AIRPORT , RI, United States (KPVD) 41-44N 071-26W 16M
Feb 16, 2019 - 01:51 AM EST / 2019.02.16 0651 UTC
Wind: from the NNW (340 degrees) at 9 MPH (8 KT):0
Visibility: 10 mile(s):0
Sky conditions: partly cloudy
Temperature: 42.1 F (5.6 C)
Dew Point: 28.0 F (-2.2 C)
Relative Humidity: 57%
Pressure (altimeter): 29.68 in. Hg (1005 hPa)
ob: KPVD 160651Z 34008KT 10SM FEW080 SCT100 06/M02 A2968 RMK AO2 SLP050 T00561022
cycle: 7

Station Type Date Time Source
KPVD TAF 2019/02/16 06:36 UTC NOAA

TAF KPVD 160535Z 1606/1706 32012G20KT P6SM OVC060
FM160700 30008KT P6SM OVC100
FM161100 31007KT P6SM SCT250


Example: see airport list